createdAt,value
2023-08-08T00:02:05.059Z,12.2
2023-08-08T00:05:05.065Z,12.2
2023-08-08T00:08:05.081Z,12.2
2023-08-08T00:11:05.077Z,12.2
2023-08-08T00:14:05.077Z,12.2
2023-08-08T00:17:05.084Z,12.2
2023-08-08T00:20:05.093Z,12.2
2023-08-08T00:23:05.091Z,12.2
2023-08-08T00:26:05.091Z,12.1
2023-08-08T00:29:05.110Z,12.1
2023-08-08T00:32:05.107Z,12.2
2023-08-08T00:35:05.106Z,12.2
2023-08-08T00:38:05.115Z,12.2
2023-08-08T00:41:05.111Z,12.2
2023-08-08T00:44:05.116Z,12.2
2023-08-08T00:47:05.126Z,12.2
2023-08-08T00:50:05.133Z,12.1
2023-08-08T00:53:05.136Z,12.2
2023-08-08T00:56:05.144Z,12.2
2023-08-08T00:59:05.146Z,12.1
2023-08-08T01:02:05.168Z,12.1
2023-08-08T01:05:05.159Z,12.1
2023-08-08T01:08:05.158Z,12.1
2023-08-08T01:11:05.157Z,12.1
2023-08-08T01:14:05.161Z,12.1
2023-08-08T01:17:05.172Z,12.1
2023-08-08T01:20:05.173Z,12
2023-08-08T01:23:05.178Z,12.1
2023-08-08T01:26:05.170Z,12
2023-08-08T01:29:05.177Z,12.1
2023-08-08T01:32:05.185Z,12.1
2023-08-08T01:35:05.186Z,12.1
2023-08-08T01:38:05.194Z,12.1
2023-08-08T01:41:05.193Z,12.1
2023-08-08T01:44:05.201Z,12.1
2023-08-08T01:47:05.209Z,12.1
2023-08-08T01:50:05.204Z,12.1
2023-08-08T01:53:05.215Z,12.1
2023-08-08T01:56:05.231Z,12.1
2023-08-08T01:59:05.222Z,12.1
2023-08-08T02:02:05.257Z,12.1
2023-08-08T02:05:05.235Z,12.1
2023-08-08T02:08:05.239Z,12.1
2023-08-08T02:11:05.248Z,12.1
2023-08-08T02:14:05.252Z,12.2
2023-08-08T02:17:05.260Z,12.2
2023-08-08T02:20:05.260Z,12.1
2023-08-08T02:23:05.258Z,12.1
2023-08-08T02:26:05.275Z,12.1
2023-08-08T02:29:05.274Z,12.1
2023-08-08T02:32:05.321Z,12
2023-08-08T02:35:05.284Z,12
2023-08-08T02:38:05.292Z,12
2023-08-08T02:41:05.293Z,12
2023-08-08T02:44:05.302Z,12.1
2023-08-08T02:47:05.306Z,12.1
2023-08-08T02:50:05.315Z,12.1
2023-08-08T02:53:05.320Z,12
2023-08-08T02:56:05.327Z,12
2023-08-08T02:59:05.325Z,12
2023-08-08T03:02:05.325Z,12.1
2023-08-08T03:05:05.328Z,12.1
2023-08-08T03:08:05.336Z,12
2023-08-08T03:11:05.333Z,12.1
2023-08-08T03:14:05.337Z,12.1
2023-08-08T03:17:05.347Z,12.1
2023-08-08T03:20:05.361Z,12.1
2023-08-08T03:23:05.353Z,12.1
2023-08-08T03:26:05.359Z,12.1
2023-08-08T03:29:05.357Z,12.1
2023-08-08T03:32:05.765Z,12.2
2023-08-08T03:35:05.372Z,12.2
2023-08-08T03:38:05.382Z,12.2
2023-08-08T03:41:05.387Z,12.2
2023-08-08T03:44:05.394Z,12.2
2023-08-08T03:47:14.003Z,12.3
2023-08-08T03:50:05.401Z,12.3
2023-08-08T03:53:05.402Z,12.4
2023-08-08T03:56:05.411Z,12.4
2023-08-08T03:59:05.416Z,12.5
2023-08-08T04:02:05.557Z,12.6
2023-08-08T04:05:05.418Z,12.6
2023-08-08T04:08:05.419Z,12.7
2023-08-08T04:11:05.429Z,12.8
2023-08-08T04:14:05.436Z,12.8
2023-08-08T04:17:05.465Z,12.9
2023-08-08T04:20:05.439Z,13
2023-08-08T04:23:05.443Z,13
2023-08-08T04:26:05.452Z,13.1
2023-08-08T04:29:05.448Z,13.2
2023-08-08T04:32:05.472Z,13.2
2023-08-08T04:35:05.465Z,13.3
2023-08-08T04:38:05.474Z,13.3
2023-08-08T04:41:05.470Z,13.3
2023-08-08T04:44:05.469Z,13.4
2023-08-08T04:47:05.479Z,13.4
2023-08-08T04:50:05.492Z,13.4
2023-08-08T04:53:05.487Z,13.4
2023-08-08T04:56:05.487Z,13.5
2023-08-08T04:59:05.507Z,13.5
2023-08-08T05:02:05.515Z,13.6
2023-08-08T05:05:05.516Z,13.6
2023-08-08T05:08:05.522Z,13.7
2023-08-08T05:11:05.522Z,13.7
2023-08-08T05:14:05.561Z,13.7
2023-08-08T05:17:05.518Z,13.8
2023-08-08T05:20:05.523Z,13.8
2023-08-08T05:23:05.531Z,13.9
2023-08-08T05:26:05.544Z,14
2023-08-08T05:29:05.546Z,14.1
2023-08-08T05:32:05.554Z,14.2
2023-08-08T05:35:05.550Z,14.2
2023-08-08T05:38:05.550Z,14.3
2023-08-08T05:41:05.563Z,14.4
2023-08-08T05:44:05.566Z,14.5
2023-08-08T05:47:05.594Z,14.6
2023-08-08T05:50:05.571Z,14.8
2023-08-08T05:53:05.564Z,14.9
2023-08-08T05:56:05.583Z,15.3
2023-08-08T05:59:05.582Z,15.6
2023-08-08T06:02:05.838Z,15.7
2023-08-08T06:05:05.582Z,15.7
2023-08-08T06:08:05.579Z,15.6
2023-08-08T06:11:05.588Z,15.5
2023-08-08T06:14:05.593Z,15.5
2023-08-08T06:17:05.604Z,15.5
2023-08-08T06:20:05.650Z,15.5
2023-08-08T06:23:05.611Z,15.4
2023-08-08T06:26:05.619Z,15.6
2023-08-08T06:29:05.635Z,15.9
2023-08-08T06:32:05.659Z,15.9
2023-08-08T06:35:05.631Z,16.2
2023-08-08T06:38:05.636Z,16.9
2023-08-08T06:41:05.646Z,17.2
2023-08-08T06:44:05.633Z,17.3
2023-08-08T06:47:05.651Z,17.5
2023-08-08T06:50:05.653Z,17.7
2023-08-08T06:53:05.660Z,17.9
2023-08-08T06:56:05.668Z,17.8
2023-08-08T06:59:05.662Z,17.9
2023-08-08T07:02:05.986Z,17.8
2023-08-08T07:05:05.673Z,17.8
2023-08-08T07:08:05.673Z,17.8
2023-08-08T07:11:05.675Z,17.7
2023-08-08T07:14:05.687Z,17.6
2023-08-08T07:17:05.696Z,17.7
2023-08-08T07:20:05.709Z,17.9
2023-08-08T07:23:05.695Z,17.9
2023-08-08T07:26:05.701Z,17.7
2023-08-08T07:29:05.707Z,17.8
2023-08-08T07:32:05.715Z,18
2023-08-08T07:35:05.720Z,18
2023-08-08T07:38:05.713Z,18
2023-08-08T07:41:05.707Z,17.8
2023-08-08T07:44:05.710Z,17.4
2023-08-08T07:47:05.776Z,17
2023-08-08T07:50:05.712Z,16.8
2023-08-08T07:53:05.726Z,16.7
2023-08-08T07:56:05.727Z,16.9
2023-08-08T07:59:05.720Z,17
2023-08-08T08:02:05.901Z,17.4
2023-08-08T08:05:05.726Z,17.8
2023-08-08T08:08:05.733Z,18.3
2023-08-08T08:11:05.732Z,18.9
2023-08-08T08:14:05.749Z,19.7
2023-08-08T08:17:05.815Z,20.4
2023-08-08T08:20:05.754Z,20.5
2023-08-08T08:23:05.773Z,20.5
2023-08-08T08:26:05.779Z,20.3
2023-08-08T08:29:05.790Z,19.9
2023-08-08T08:32:05.812Z,20.2
2023-08-08T08:35:05.818Z,20.8
2023-08-08T08:38:05.843Z,21.2
2023-08-08T08:41:05.836Z,21.1
2023-08-08T08:44:05.846Z,21
2023-08-08T08:47:05.857Z,20.9
2023-08-08T08:50:05.864Z,20.3
2023-08-08T08:53:05.862Z,19.9
2023-08-08T08:56:05.868Z,19.5
2023-08-08T08:59:05.885Z,19
2023-08-08T09:02:05.873Z,18.8
2023-08-08T09:05:05.885Z,19
2023-08-08T09:08:05.893Z,19.3
2023-08-08T09:11:05.894Z,19
2023-08-08T09:14:05.894Z,18.8
2023-08-08T09:17:05.902Z,18.5
2023-08-08T09:20:05.916Z,17.9
2023-08-08T09:23:05.944Z,17.6
2023-08-08T09:26:05.930Z,17.7
2023-08-08T09:29:05.925Z,18.1
2023-08-08T09:32:05.938Z,18.6
2023-08-08T09:35:05.944Z,19.2
2023-08-08T09:38:05.947Z,19.5
2023-08-08T09:41:05.953Z,19.9
2023-08-08T09:44:05.961Z,20.2
2023-08-08T09:47:05.963Z,20.5
2023-08-08T09:50:06.506Z,20.5
2023-08-08T09:53:06.878Z,20.3
2023-08-08T09:56:05.982Z,20.4
2023-08-08T09:59:05.965Z,20.6
2023-08-08T10:02:06.280Z,20.5
2023-08-08T10:05:05.990Z,20.5
2023-08-08T10:08:06.013Z,20.6
2023-08-08T10:11:06.006Z,20.6
2023-08-08T10:14:05.999Z,20.5
2023-08-08T10:17:06.015Z,20.2
2023-08-08T10:20:06.009Z,20.2
2023-08-08T10:23:06.017Z,20.5
2023-08-08T10:26:06.020Z,21.3
2023-08-08T10:29:06.081Z,22
2023-08-08T10:32:06.046Z,21.8
2023-08-08T10:35:06.045Z,21.1
2023-08-08T10:38:06.043Z,20.1
2023-08-08T10:41:06.057Z,19.5
2023-08-08T10:44:06.066Z,19.4
2023-08-08T10:47:06.070Z,19.2
2023-08-08T10:50:06.102Z,18.7
2023-08-08T10:53:07.001Z,18
2023-08-08T10:56:06.081Z,17.6
2023-08-08T10:59:06.085Z,17.5
2023-08-08T11:02:06.093Z,17.5
2023-08-08T11:05:06.153Z,17.6
2023-08-08T11:08:06.102Z,17.7
2023-08-08T11:11:06.098Z,17.7
2023-08-08T11:14:06.105Z,18.1
2023-08-08T11:17:06.109Z,18.4
2023-08-08T11:20:06.123Z,18.8
2023-08-08T11:23:06.114Z,19.1
2023-08-08T11:29:06.124Z,18.8
2023-08-08T11:32:06.130Z,18.8
2023-08-08T11:35:06.140Z,18.9
2023-08-08T11:38:06.133Z,18.8
2023-08-08T11:41:06.128Z,18.7
2023-08-08T11:44:06.290Z,19
2023-08-08T11:47:07.481Z,19.6
2023-08-08T11:50:06.152Z,20
2023-08-08T11:53:07.133Z,20.3
2023-08-08T11:56:06.162Z,20.6
2023-08-08T11:59:06.223Z,20.8
2023-08-08T12:02:06.172Z,20.7
2023-08-08T12:05:06.166Z,20.7
2023-08-08T12:08:06.175Z,20.9
2023-08-08T12:11:06.194Z,21.3
2023-08-08T12:14:06.205Z,21.7
2023-08-08T12:17:06.241Z,21.8
2023-08-08T12:20:06.189Z,21.9
2023-08-08T12:23:06.208Z,21.9
2023-08-08T12:26:06.200Z,21.6
2023-08-08T12:29:06.221Z,21.4
2023-08-08T12:32:06.222Z,21.4
2023-08-08T12:35:06.212Z,21.1
2023-08-08T12:38:06.226Z,20.9
2023-08-08T12:41:06.208Z,21
2023-08-08T12:44:06.222Z,21.2
2023-08-08T12:47:06.267Z,21
2023-08-08T12:50:06.243Z,20.7
2023-08-08T12:53:06.241Z,20.2
2023-08-08T12:56:06.251Z,19.4
2023-08-08T12:59:06.245Z,19
2023-08-08T13:02:06.276Z,19.1
2023-08-08T13:05:06.270Z,19.3
2023-08-08T13:08:06.265Z,19.7
2023-08-08T13:11:06.275Z,20.1
2023-08-08T13:14:06.270Z,20.2
2023-08-08T13:17:06.283Z,20.3
2023-08-08T13:20:06.276Z,20.3
2023-08-08T13:23:06.281Z,20.2
2023-08-08T13:26:06.285Z,20.2
2023-08-08T13:29:06.300Z,20.3
2023-08-08T13:32:06.309Z,20.7
2023-08-08T13:35:06.305Z,21.1
2023-08-08T13:38:06.307Z,21.3
2023-08-08T13:41:06.297Z,20.9
2023-08-08T13:44:06.332Z,20.2
2023-08-08T13:47:06.335Z,18.9
2023-08-08T13:50:06.326Z,18
2023-08-08T13:53:06.336Z,17.7
2023-08-08T13:56:06.340Z,17.5
2023-08-08T13:59:06.340Z,17.4
2023-08-08T14:02:06.354Z,17.3
2023-08-08T14:05:06.353Z,17.1
2023-08-08T14:08:06.354Z,15.5
2023-08-08T14:11:06.368Z,14.8
2023-08-08T14:14:06.367Z,14.5
2023-08-08T14:17:06.378Z,14.6
2023-08-08T14:20:06.390Z,14.7
2023-08-08T14:23:06.385Z,14.9
2023-08-08T14:26:06.381Z,15
2023-08-08T14:29:06.382Z,15
2023-08-08T14:32:06.624Z,15.1
2023-08-08T14:35:06.400Z,15.4
2023-08-08T14:38:06.398Z,15.5
2023-08-08T14:41:06.420Z,15.6
2023-08-08T14:44:06.402Z,15.7
2023-08-08T14:47:06.410Z,15.7
2023-08-08T14:50:06.424Z,15.9
2023-08-08T14:53:06.430Z,16
2023-08-08T14:56:06.426Z,16
2023-08-08T14:59:06.433Z,16
2023-08-08T15:02:06.495Z,15.8
2023-08-08T15:05:06.432Z,15.5
2023-08-08T15:08:06.453Z,15.3
2023-08-08T15:11:06.438Z,15.2
2023-08-08T15:14:06.455Z,15.2
2023-08-08T15:17:06.455Z,15.2
2023-08-08T15:20:06.469Z,15.3
2023-08-08T15:23:06.464Z,15.4
2023-08-08T15:26:06.470Z,15.5
2023-08-08T15:29:06.474Z,15.6
2023-08-08T15:32:06.470Z,15.8
2023-08-08T15:35:06.480Z,16
2023-08-08T15:38:06.491Z,16
2023-08-08T15:41:06.499Z,16.1
2023-08-08T15:44:06.491Z,16.2
2023-08-08T15:47:06.514Z,16.3
2023-08-08T15:50:06.513Z,16.3
2023-08-08T15:53:06.523Z,16.2
2023-08-08T15:56:06.514Z,16.1
2023-08-08T15:59:06.513Z,16
2023-08-08T16:02:06.584Z,15.9
2023-08-08T16:05:06.535Z,15.8
2023-08-08T16:08:06.542Z,15.8
2023-08-08T16:11:06.546Z,15.9
2023-08-08T16:14:06.544Z,16
2023-08-08T16:17:06.544Z,16.1
2023-08-08T16:20:06.550Z,16.2
2023-08-08T16:23:06.560Z,16.3
2023-08-08T16:26:06.571Z,16.3
2023-08-08T16:29:06.563Z,16.4
2023-08-08T16:32:06.568Z,16.5
2023-08-08T16:35:06.582Z,16.7
2023-08-08T16:38:06.613Z,16.9
2023-08-08T16:41:06.582Z,17.1
2023-08-08T16:44:06.589Z,17.1
2023-08-08T16:47:06.595Z,17.1
2023-08-08T16:50:06.599Z,17.1
2023-08-08T16:53:06.612Z,17.2
2023-08-08T16:56:06.603Z,17.3
2023-08-08T16:59:06.606Z,17.3
2023-08-08T17:02:06.606Z,17.3
2023-08-08T17:05:06.615Z,17.3
2023-08-08T17:08:06.631Z,17.4
2023-08-08T17:11:06.616Z,17.4
2023-08-08T17:14:06.620Z,17.4
2023-08-08T17:17:06.626Z,17.4
2023-08-08T17:20:06.632Z,17.4
2023-08-08T17:23:06.655Z,17.3
2023-08-08T17:26:06.629Z,17.3
2023-08-08T17:29:06.656Z,17.2
2023-08-08T17:32:06.647Z,17.1
2023-08-08T17:35:06.656Z,17
2023-08-08T17:38:06.673Z,17
2023-08-08T17:41:06.665Z,16.9
2023-08-08T17:44:08.283Z,16.9
2023-08-08T17:47:06.672Z,17
2023-08-08T17:50:06.678Z,17
2023-08-08T17:53:06.693Z,17
2023-08-08T17:56:06.684Z,17
2023-08-08T17:59:06.697Z,17
2023-08-08T18:02:06.733Z,17
2023-08-08T18:05:06.699Z,17
2023-08-08T18:08:06.712Z,17
2023-08-08T18:11:06.713Z,16.9
2023-08-08T18:14:06.711Z,16.9
2023-08-08T18:17:06.713Z,16.9
2023-08-08T18:20:06.706Z,16.8
2023-08-08T18:23:06.729Z,16.7
2023-08-08T18:26:06.727Z,16.6
2023-08-08T18:29:06.734Z,16.5
2023-08-08T18:32:06.776Z,16.5
2023-08-08T18:35:06.742Z,16.4
2023-08-08T18:38:06.754Z,16.3
2023-08-08T18:41:06.746Z,16.2
2023-08-08T18:44:06.742Z,16.2
2023-08-08T18:47:06.748Z,16.2
2023-08-08T18:50:06.759Z,16.2
2023-08-08T18:53:06.782Z,16.1
2023-08-08T18:56:06.769Z,16.1
2023-08-08T18:59:06.786Z,16.1
2023-08-08T19:02:06.775Z,16.1
2023-08-08T19:05:06.794Z,16.1
2023-08-08T19:08:06.796Z,16
2023-08-08T19:11:06.800Z,15.9
2023-08-08T19:14:06.812Z,15.9
2023-08-08T19:17:06.802Z,15.8
2023-08-08T19:20:06.810Z,15.8
2023-08-08T19:23:06.823Z,15.8
2023-08-08T19:26:06.818Z,15.7
2023-08-08T19:29:06.832Z,15.7
2023-08-08T19:32:06.822Z,15.6
2023-08-08T19:35:06.837Z,15.6
2023-08-08T19:38:06.852Z,15.5
2023-08-08T19:41:06.848Z,15.5
2023-08-08T19:44:06.845Z,15.4
2023-08-08T19:47:06.853Z,15.4
2023-08-08T19:50:06.844Z,15.3
2023-08-08T19:53:06.877Z,15.2
2023-08-08T19:56:06.874Z,15.1
2023-08-08T19:59:06.872Z,15.1
2023-08-08T20:02:06.877Z,14.9
2023-08-08T20:05:06.871Z,14.8
2023-08-08T20:08:06.893Z,14.7
2023-08-08T20:11:06.986Z,14.6
2023-08-08T20:14:06.892Z,14.5
2023-08-08T20:17:06.898Z,14.4
2023-08-08T20:20:06.901Z,14.3
2023-08-08T20:23:06.905Z,14.2
2023-08-08T20:26:06.928Z,14.1
2023-08-08T20:29:06.900Z,14.1
2023-08-08T20:32:06.906Z,14
2023-08-08T20:35:06.914Z,14
2023-08-08T20:38:06.932Z,13.9
2023-08-08T20:41:06.925Z,13.8
2023-08-08T20:44:06.923Z,13.8
2023-08-08T20:47:06.965Z,13.8
2023-08-08T20:50:06.947Z,13.8
2023-08-08T20:53:06.953Z,13.7
2023-08-08T20:56:06.962Z,13.7
2023-08-08T20:59:06.950Z,13.6
2023-08-08T21:02:07.013Z,13.6
2023-08-08T21:05:07.033Z,13.6
2023-08-08T21:08:06.979Z,13.5
2023-08-08T21:11:06.967Z,13.5
2023-08-08T21:14:06.966Z,13.4
2023-08-08T21:17:06.999Z,13.4
2023-08-08T21:20:06.981Z,13.4
2023-08-08T21:23:07.003Z,13.3
2023-08-08T21:26:06.990Z,13.3
2023-08-08T21:29:07.007Z,13.3
2023-08-08T21:32:07.001Z,13.3
2023-08-08T21:35:07.007Z,13.4
2023-08-08T21:38:07.012Z,13.4
2023-08-08T21:41:07.023Z,13.4
2023-08-08T21:44:07.014Z,13.5
2023-08-08T21:47:07.023Z,13.5
2023-08-08T21:50:07.009Z,13.6
2023-08-08T21:53:07.037Z,13.7
2023-08-08T21:56:07.026Z,13.8
2023-08-08T21:59:07.027Z,13.8
2023-08-08T22:02:07.058Z,13.9
2023-08-08T22:05:07.035Z,13.9
2023-08-08T22:08:07.053Z,13.9
2023-08-08T22:11:07.048Z,13.9
2023-08-08T22:17:07.039Z,13.9
2023-08-08T22:20:07.048Z,13.9
2023-08-08T22:23:13.870Z,13.9
2023-08-08T22:26:07.051Z,13.9
2023-08-08T22:29:07.056Z,13.9
2023-08-08T22:32:07.056Z,13.9
2023-08-08T22:35:07.057Z,13.9
2023-08-08T22:38:07.064Z,13.9
2023-08-08T22:41:07.102Z,13.9
2023-08-08T22:44:07.119Z,13.9
2023-08-08T22:47:07.131Z,13.9
2023-08-08T22:50:07.153Z,13.9
2023-08-08T22:53:07.144Z,13.9
2023-08-08T22:56:07.146Z,13.9
2023-08-08T22:59:07.146Z,13.9
2023-08-08T23:02:07.157Z,13.9
2023-08-08T23:05:07.180Z,13.9
2023-08-08T23:08:07.157Z,13.9
2023-08-08T23:11:07.170Z,13.9
2023-08-08T23:14:07.197Z,13.8
2023-08-08T23:17:07.192Z,13.8
2023-08-08T23:20:07.196Z,13.8
2023-08-08T23:23:07.198Z,13.8
2023-08-08T23:26:07.204Z,13.8
2023-08-08T23:29:07.205Z,13.8
2023-08-08T23:32:07.221Z,13.8
2023-08-08T23:35:07.218Z,13.8
2023-08-08T23:38:07.229Z,13.8
2023-08-08T23:41:07.230Z,13.8
2023-08-08T23:44:07.233Z,13.8
2023-08-08T23:47:07.233Z,13.8
2023-08-08T23:50:07.258Z,13.8
2023-08-08T23:53:07.256Z,13.8
2023-08-08T23:56:07.287Z,13.8
2023-08-08T23:59:07.278Z,13.8
